createdAt,value
2023-02-06T00:00:37.607Z,3.50
2023-02-06T00:03:06.116Z,3.50
2023-02-06T00:05:36.315Z,3.50
2023-02-06T00:08:07.090Z,3.50
2023-02-06T00:10:35.574Z,3.60
2023-02-06T00:13:03.914Z,3.60
2023-02-06T00:15:32.173Z,3.50
2023-02-06T00:18:00.429Z,3.50
2023-02-06T00:20:29.079Z,3.50
2023-02-06T00:22:58.973Z,3.50
2023-02-06T00:25:27.404Z,3.50
2023-02-06T00:27:55.719Z,3.40
2023-02-06T00:30:25.545Z,3.40
2023-02-06T00:32:54.090Z,3.40
2023-02-06T00:35:22.804Z,3.40
2023-02-06T00:37:52.020Z,3.30
2023-02-06T00:40:22.755Z,3.40
2023-02-06T00:42:51.055Z,3.30
2023-02-06T00:45:19.732Z,3.40
2023-02-06T00:47:47.993Z,3.40
2023-02-06T00:50:16.969Z,3.40
2023-02-06T00:52:45.807Z,3.50
2023-02-06T00:55:14.306Z,3.40
2023-02-06T00:57:44.502Z,3.40
2023-02-06T01:00:14.628Z,3.40
2023-02-06T01:02:42.900Z,3.40
2023-02-06T01:05:14.084Z,3.50
2023-02-06T01:07:45.732Z,3.50
2023-02-06T01:10:15.050Z,3.50
2023-02-06T01:12:44.896Z,3.50
2023-02-06T01:15:15.560Z,3.50
2023-02-06T01:17:43.972Z,3.50
2023-02-06T01:20:15.282Z,3.50
2023-02-06T01:22:43.833Z,3.50
2023-02-06T01:25:13.557Z,3.50
2023-02-06T01:27:42.023Z,3.50
2023-02-06T01:30:13.689Z,3.60
2023-02-06T01:32:43.357Z,3.50
2023-02-06T01:35:13.271Z,3.50
2023-02-06T01:37:42.441Z,3.60
2023-02-06T01:40:15.824Z,3.60
2023-02-06T01:42:44.861Z,3.50
2023-02-06T01:45:42.721Z,3.50
2023-02-06T01:48:16.518Z,3.50
2023-02-06T01:50:49.586Z,3.50
2023-02-06T01:53:19.522Z,3.50
2023-02-06T01:55:51.108Z,3.60
2023-02-06T01:58:25.986Z,3.60
2023-02-06T02:00:56.947Z,3.60
2023-02-06T02:03:25.807Z,3.60
2023-02-06T02:05:58.964Z,3.60
2023-02-06T02:08:35.335Z,3.50
2023-02-06T02:11:43.164Z,3.50
2023-02-06T02:14:14.949Z,3.50
2023-02-06T02:17:01.964Z,3.40
2023-02-06T02:20:24.892Z,3.40
2023-02-06T02:23:22.770Z,3.40
2023-02-06T02:26:19.406Z,3.30
2023-02-06T02:29:54.926Z,3.40
2023-02-06T02:33:23.324Z,3.40
2023-02-06T02:35:56.816Z,3.30
2023-02-06T02:38:39.673Z,3.30
2023-02-06T02:41:21.020Z,3.30
2023-02-06T02:43:56.433Z,3.30
2023-02-06T02:46:31.124Z,3.30
2023-02-06T02:49:10.727Z,3.30
2023-02-06T02:51:42.045Z,3.30
2023-02-06T02:54:10.986Z,3.40
2023-02-06T02:56:39.706Z,3.40
2023-02-06T02:59:13.315Z,3.40
2023-02-06T03:01:49.956Z,3.40
2023-02-06T03:04:24.272Z,3.40
2023-02-06T03:07:17.411Z,3.30
2023-02-06T03:09:58.075Z,3.30
2023-02-06T03:12:40.254Z,3.30
2023-02-06T03:15:21.739Z,3.20
2023-02-06T03:18:00.428Z,3.20
2023-02-06T03:20:31.560Z,3.20
2023-02-06T03:23:04.457Z,3.10
2023-02-06T03:25:43.108Z,3.10
2023-02-06T03:28:18.234Z,3.10
2023-02-06T03:31:19.524Z,3.10
2023-02-06T03:33:53.750Z,3.10
2023-02-06T03:36:22.842Z,3.10
2023-02-06T03:38:57.618Z,3.10
2023-02-06T03:41:34.120Z,3.10
2023-02-06T03:44:26.300Z,3.10
2023-02-06T03:47:03.529Z,3.00
2023-02-06T03:49:34.501Z,3.00
2023-02-06T03:55:08.752Z,3.00
2023-02-06T03:57:41.575Z,3.00
2023-02-06T04:00:12.166Z,3.00
2023-02-06T04:02:47.831Z,3.00
2023-02-06T04:05:18.072Z,3.00
2023-02-06T04:07:49.426Z,3.00
2023-02-06T04:10:26.484Z,3.00
2023-02-06T04:13:03.454Z,3.00
2023-02-06T04:15:31.953Z,2.90
2023-02-06T04:18:31.361Z,3.00
2023-02-06T04:21:13.807Z,3.00
2023-02-06T04:24:09.066Z,3.00
2023-02-06T04:26:38.697Z,2.90
2023-02-06T04:29:07.178Z,2.90
2023-02-06T04:31:50.773Z,2.90
2023-02-06T04:34:28.165Z,2.80
2023-02-06T04:36:56.878Z,2.90
2023-02-06T04:39:28.845Z,2.80
2023-02-06T04:41:58.941Z,2.80
2023-02-06T04:44:27.654Z,2.80
2023-02-06T04:46:56.191Z,2.80
2023-02-06T04:49:24.498Z,2.80
2023-02-06T04:51:56.565Z,2.80
2023-02-06T04:54:32.441Z,2.70
2023-02-06T04:57:02.903Z,2.70
2023-02-06T04:59:31.508Z,2.70
2023-02-06T05:01:59.965Z,2.70
2023-02-06T05:05:09.546Z,2.70
2023-02-06T05:07:59.466Z,2.70
2023-02-06T05:10:45.572Z,2.60
2023-02-06T05:13:35.501Z,2.60
2023-02-06T05:16:24.280Z,2.60
2023-02-06T05:19:03.254Z,2.60
2023-02-06T05:21:41.280Z,2.60
2023-02-06T05:24:22.896Z,2.60
2023-02-06T05:26:58.485Z,2.60
2023-02-06T05:29:37.582Z,2.60
2023-02-06T05:32:09.092Z,2.60
2023-02-06T05:34:37.619Z,2.60
2023-02-06T05:37:15.012Z,2.60
2023-02-06T05:39:49.255Z,2.70
2023-02-06T05:42:24.754Z,2.70
2023-02-06T05:45:00.490Z,2.70
2023-02-06T05:47:30.112Z,2.70
2023-02-06T05:49:58.371Z,2.70
2023-02-06T05:52:26.663Z,2.70
2023-02-06T05:54:55.011Z,2.70
2023-02-06T05:57:32.627Z,2.70
2023-02-06T06:00:15.783Z,2.70
2023-02-06T06:02:44.081Z,2.70
2023-02-06T06:05:12.340Z,2.70
2023-02-06T06:07:40.787Z,2.60
2023-02-06T06:10:10.227Z,2.70
2023-02-06T06:12:38.811Z,2.70
2023-02-06T06:15:10.183Z,2.70
2023-02-06T06:17:38.519Z,2.80
2023-02-06T06:20:08.859Z,2.70
2023-02-06T06:22:39.461Z,2.80
2023-02-06T06:25:20.678Z,2.80
2023-02-06T06:27:49.661Z,2.80
2023-02-06T06:58:31.735Z,2.50
2023-02-06T07:01:01.107Z,2.50
2023-02-06T07:06:38.856Z,2.50
2023-02-06T07:09:07.410Z,2.50
2023-02-06T07:11:36.384Z,2.50
2023-02-06T07:14:21.469Z,2.50
2023-02-06T07:16:51.159Z,2.50
2023-02-06T07:22:37.664Z,2.60
2023-02-06T07:25:07.803Z,2.60
2023-02-06T07:30:35.287Z,2.60
2023-02-06T07:33:27.076Z,2.60
2023-02-06T07:35:55.559Z,2.60
2023-02-06T07:38:26.446Z,2.50
2023-02-06T07:40:54.813Z,2.60
2023-02-06T07:43:23.091Z,2.60
2023-02-06T07:46:10.307Z,2.60
2023-02-06T07:48:39.807Z,2.60
2023-02-06T07:54:24.634Z,2.60
2023-02-06T07:57:06.956Z,2.70
2023-02-06T07:59:53.119Z,2.70
2023-02-06T08:02:44.312Z,2.80
2023-02-06T08:16:38.998Z,2.90
2023-02-06T08:19:41.483Z,2.90
2023-02-06T08:23:02.508Z,2.90
2023-02-06T08:26:02.803Z,2.80
2023-02-06T08:32:19.425Z,2.90
2023-02-06T08:36:38.000Z,2.90
2023-02-06T08:40:20.273Z,2.90
2023-02-06T08:43:03.431Z,2.90
2023-02-06T08:46:04.075Z,2.90
2023-02-06T08:52:29.522Z,2.90
2023-02-06T09:05:26.738Z,2.90
2023-02-06T09:08:16.854Z,2.90
2023-02-06T09:10:46.366Z,3.00
2023-02-06T09:13:15.433Z,3.00
2023-02-06T09:15:44.062Z,3.00
2023-02-06T09:18:12.341Z,3.00
2023-02-06T09:20:40.555Z,3.10
2023-02-06T09:23:08.814Z,3.10
2023-02-06T09:25:40.113Z,3.20
2023-02-06T09:28:08.503Z,3.20
2023-02-06T09:30:36.847Z,3.30
2023-02-06T10:15:27.093Z,3.60
2023-02-06T10:56:34.979Z,4.10
2023-02-06T10:59:12.539Z,4.10
2023-02-06T11:01:43.056Z,4.10
2023-02-06T11:04:17.041Z,4.10
2023-02-06T12:21:55.929Z,4.60
2023-02-06T12:24:32.259Z,4.50
2023-02-06T13:25:52.858Z,4.60
2023-02-06T13:28:42.813Z,4.60
2023-02-06T13:31:25.758Z,4.60
2023-02-06T13:33:58.521Z,4.80
2023-02-06T13:36:43.613Z,4.90
2023-02-06T13:39:32.461Z,5.00
2023-02-06T13:42:34.431Z,5.10
2023-02-06T13:45:06.991Z,5.20
2023-02-06T13:48:10.101Z,5.30
2023-02-06T13:51:00.792Z,5.30
2023-02-06T13:54:10.427Z,5.30
2023-02-06T13:56:58.616Z,5.30
2023-02-06T14:15:12.765Z,5.20
2023-02-06T14:18:14.796Z,5.00
2023-02-06T14:20:51.142Z,4.80
2023-02-06T14:23:36.884Z,4.80
2023-02-06T14:26:22.331Z,4.70
2023-02-06T15:35:41.926Z,4.00
2023-02-06T16:34:38.397Z,3.80
2023-02-06T16:37:14.503Z,3.70
2023-02-06T16:39:44.970Z,3.80
2023-02-06T16:53:11.896Z,3.80
2023-02-06T16:55:58.683Z,3.70
2023-02-06T17:03:10.121Z,3.50
2023-02-06T17:05:40.443Z,3.50
